Aviation Digital Data Service (ADDS)

Output produced by METARs form (1819 UTC 18 April 2019)
found at http://www.aviationweather.gov/metar/data/
 
METAR text: VEBS 181800Z 21004KT 5000 -RA FEW012 SCT018 28/27 Q1011 NOSIG
Conditions at: VEBS (BHUBANESWAR , IN) observed 1800 UTC 18 April 2019
Temperature: 28.0°C (82°F)
Dewpoint: 27.0°C (81°F) [RH = 94%]
Pressure (altimeter): 29.85 inches Hg (1011.0 mb)
Winds: from the SSW (210 degrees) at 5 MPH (4 knots; 2.1 m/s)
Visibility: 3 miles ( 5 km)
Ceiling: at least 12,000 feet AGL
Clouds: few clouds at 1200 feet AGL
scattered clouds at 1800 feet AGL
Weather: -RA  (light rain)

METAR text: VEBS 181730Z 17006KT 5000 HZ FEW020 SCT100 28/27 Q1011 NOSIG
Conditions at: VEBS (BHUBANESWAR , IN) observed 1730 UTC 18 April 2019
Temperature: 28.0°C (82°F)
Dewpoint: 27.0°C (81°F) [RH = 94%]
Pressure (altimeter): 29.85 inches Hg (1011.0 mb)
Winds: from the S (170 degrees) at 7 MPH (6 knots; 3.1 m/s)
Visibility: 3 miles ( 5 km)
Ceiling: at least 12,000 feet AGL
Clouds: few clouds at 2000 feet AGL
scattered clouds at 10000 feet AGL
Weather: HZ  (haze)

METAR text: VEBS 181700Z 19004KT 5000 HZ FEW020 SCT100 28/27 Q1011 NOSIG
Conditions at: VEBS (BHUBANESWAR , IN) observed 1700 UTC 18 April 2019
Temperature: 28.0°C (82°F)
Dewpoint: 27.0°C (81°F) [RH = 94%]
Pressure (altimeter): 29.85 inches Hg (1011.0 mb)
Winds: from the S (190 degrees) at 5 MPH (4 knots; 2.1 m/s)
Visibility: 3 miles ( 5 km)
Ceiling: at least 12,000 feet AGL
Clouds: few clouds at 2000 feet AGL
scattered clouds at 10000 feet AGL
Weather: HZ  (haze)

METAR text: VEBS 181630Z 20002KT 5000 HZ FEW020 SCT100 28/27 Q1011 NOSIG
Conditions at: VEBS (BHUBANESWAR , IN) observed 1630 UTC 18 April 2019
Temperature: 28.0°C (82°F)
Dewpoint: 27.0°C (81°F) [RH = 94%]
Pressure (altimeter): 29.85 inches Hg (1011.0 mb)
Winds: from the SSW (200 degrees) at 2 MPH (2 knots; 1.0 m/s)
Visibility: 3 miles ( 5 km)
Ceiling: at least 12,000 feet AGL
Clouds: few clouds at 2000 feet AGL
scattered clouds at 10000 feet AGL
Weather: HZ  (haze)

METAR text: VEBS 181600Z 18004KT 5000 HZ FEW020 SCT100 28/27 Q1010 NOSIG
Conditions at: VEBS (BHUBANESWAR , IN) observed 1600 UTC 18 April 2019
Temperature: 28.0°C (82°F)
Dewpoint: 27.0°C (81°F) [RH = 94%]
Pressure (altimeter): 29.82 inches Hg (1010.0 mb)
Winds: from the S (180 degrees) at 5 MPH (4 knots; 2.1 m/s)
Visibility: 3 miles ( 5 km)
Ceiling: at least 12,000 feet AGL
Clouds: few clouds at 2000 feet AGL
scattered clouds at 10000 feet AGL
Weather: HZ  (haze)

METAR text: VEBS 181530Z 16005KT 5000 HZ FEW020 29/26 Q1009 NOSIG
Conditions at: VEBS (BHUBANESWAR , IN) observed 1530 UTC 18 April 2019
Temperature: 29.0°C (84°F)
Dewpoint: 26.0°C (79°F) [RH = 84%]
Pressure (altimeter): 29.79 inches Hg (1009.0 mb)
Winds: from the SSE (160 degrees) at 6 MPH (5 knots; 2.6 m/s)
Visibility: 3 miles ( 5 km)
Ceiling: at least 12,000 feet AGL
Clouds: few clouds at 2000 feet AGL
Weather: HZ  (haze)

METAR text: VEBS 181500Z 16005KT 5000 HZ FEW020 29/26 Q1009 NOSIG
Conditions at: VEBS (BHUBANESWAR , IN) observed 1500 UTC 18 April 2019
Temperature: 29.0°C (84°F)
Dewpoint: 26.0°C (79°F) [RH = 84%]
Pressure (altimeter): 29.79 inches Hg (1009.0 mb)
Winds: from the SSE (160 degrees) at 6 MPH (5 knots; 2.6 m/s)
Visibility: 3 miles ( 5 km)
Ceiling: at least 12,000 feet AGL
Clouds: few clouds at 2000 feet AGL
Weather: HZ  (haze)

METAR text: VEBS 181430Z 15007KT 5000 HZ FEW020 29/27 Q1009 NOSIG
Conditions at: VEBS (BHUBANESWAR , IN) observed 1430 UTC 18 April 2019
Temperature: 29.0°C (84°F)
Dewpoint: 27.0°C (81°F) [RH = 89%]
Pressure (altimeter): 29.79 inches Hg (1009.0 mb)
Winds: from the SSE (150 degrees) at 8 MPH (7 knots; 3.6 m/s)
Visibility: 3 miles ( 5 km)
Ceiling: at least 12,000 feet AGL
Clouds: few clouds at 2000 feet AGL
Weather: HZ  (haze)

METAR text: VEBS 181400Z 16005KT 5000 HZ FEW020 30/27 Q1008 NOSIG
Conditions at: VEBS (BHUBANESWAR , IN) observed 1400 UTC 18 April 2019
Temperature: 30.0°C (86°F)
Dewpoint: 27.0°C (81°F) [RH = 84%]
Pressure (altimeter): 29.76 inches Hg (1008.0 mb)
Winds: from the SSE (160 degrees) at 6 MPH (5 knots; 2.6 m/s)
Visibility: 3 miles ( 5 km)
Ceiling: at least 12,000 feet AGL
Clouds: few clouds at 2000 feet AGL
Weather: HZ  (haze)

METAR text: VEBS 181330Z 16010KT 5000 HZ FEW020 30/26 Q1008 NOSIG
Conditions at: VEBS (BHUBANESWAR , IN) observed 1330 UTC 18 April 2019
Temperature: 30.0°C (86°F)
Dewpoint: 26.0°C (79°F) [RH = 79%]
Pressure (altimeter): 29.76 inches Hg (1008.0 mb)
Winds: from the SSE (160 degrees) at 12 MPH (10 knots; 5.1 m/s)
Visibility: 3 miles ( 5 km)
Ceiling: at least 12,000 feet AGL
Clouds: few clouds at 2000 feet AGL
Weather: HZ  (haze)

METAR text: VEBS 181300Z 15012KT 5000 HZ FEW020 31/26 Q1008 NOSIG
Conditions at: VEBS (BHUBANESWAR , IN) observed 1300 UTC 18 April 2019
Temperature: 31.0°C (88°F)
Dewpoint: 26.0°C (79°F) [RH = 75%]
Pressure (altimeter): 29.76 inches Hg (1008.0 mb)
Winds: from the SSE (150 degrees) at 14 MPH (12 knots; 6.2 m/s)
Visibility: 3 miles ( 5 km)
Ceiling: at least 12,000 feet AGL
Clouds: few clouds at 2000 feet AGL
Weather: HZ  (haze)

METAR text: VEBS 181230Z 15010KT 5000 HZ FEW020 32/25 Q1008 NOSIG
Conditions at: VEBS (BHUBANESWAR , IN) observed 1230 UTC 18 April 2019
Temperature: 32.0°C (90°F)
Dewpoint: 25.0°C (77°F) [RH = 67%]
Pressure (altimeter): 29.76 inches Hg (1008.0 mb)
Winds: from the SSE (150 degrees) at 12 MPH (10 knots; 5.1 m/s)
Visibility: 3 miles ( 5 km)
Ceiling: at least 12,000 feet AGL
Clouds: few clouds at 2000 feet AGL
Weather: HZ  (haze)

METAR text: VEBS 181200Z 16010KT 5000 HZ FEW020 33/22 Q1007 NOSIG
Conditions at: VEBS (BHUBANESWAR , IN) observed 1200 UTC 18 April 2019
Temperature: 33.0°C (91°F)
Dewpoint: 22.0°C (72°F) [RH = 53%]
Pressure (altimeter): 29.73 inches Hg (1007.0 mb)
Winds: from the SSE (160 degrees) at 12 MPH (10 knots; 5.1 m/s)
Visibility: 3 miles ( 5 km)
Ceiling: at least 12,000 feet AGL
Clouds: few clouds at 2000 feet AGL
Weather: HZ  (haze)

METAR text: VEBS 181130Z 14012KT 5000 HZ FEW020 34/24 Q1007 NOSIG
Conditions at: VEBS (BHUBANESWAR , IN) observed 1130 UTC 18 April 2019
Temperature: 34.0°C (93°F)
Dewpoint: 24.0°C (75°F) [RH = 56%]
Pressure (altimeter): 29.73 inches Hg (1007.0 mb)
Winds: from the SE (140 degrees) at 14 MPH (12 knots; 6.2 m/s)
Visibility: 3 miles ( 5 km)
Ceiling: at least 12,000 feet AGL
Clouds: few clouds at 2000 feet AGL
Weather: HZ  (haze)

METAR text: VEBS 181100Z 14012KT 5000 HZ FEW020 35/24 Q1007 NOSIG
Conditions at: VEBS (BHUBANESWAR , IN) observed 1100 UTC 18 April 2019
Temperature: 35.0°C (95°F)
Dewpoint: 24.0°C (75°F) [RH = 53%]
Pressure (altimeter): 29.73 inches Hg (1007.0 mb)
Winds: from the SE (140 degrees) at 14 MPH (12 knots; 6.2 m/s)
Visibility: 3 miles ( 5 km)
Ceiling: at least 12,000 feet AGL
Clouds: few clouds at 2000 feet AGL
Weather: HZ  (haze)

METAR text: VEBS 181030Z 13012KT 5000 HZ FEW020 36/24 Q1007 NOSIG
Conditions at: VEBS (BHUBANESWAR , IN) observed 1030 UTC 18 April 2019
Temperature: 36.0°C (97°F)
Dewpoint: 24.0°C (75°F) [RH = 50%]
Pressure (altimeter): 29.73 inches Hg (1007.0 mb)
Winds: from the SE (130 degrees) at 14 MPH (12 knots; 6.2 m/s)
Visibility: 3 miles ( 5 km)
Ceiling: at least 12,000 feet AGL
Clouds: few clouds at 2000 feet AGL
Weather: HZ  (haze)

METAR text: VEBS 181000Z 14006KT 5000 HZ FEW020 37/23 Q1007 NOSIG
Conditions at: VEBS (BHUBANESWAR , IN) observed 1000 UTC 18 April 2019
Temperature: 37.0°C (99°F)
Dewpoint: 23.0°C (73°F) [RH = 45%]
Pressure (altimeter): 29.73 inches Hg (1007.0 mb)
Winds: from the SE (140 degrees) at 7 MPH (6 knots; 3.1 m/s)
Visibility: 3 miles ( 5 km)
Ceiling: at least 12,000 feet AGL
Clouds: few clouds at 2000 feet AGL
Weather: HZ  (haze)

METAR text: VEBS 180930Z 14006KT 5000 HZ FEW020 37/22 Q1008 NOSIG
Conditions at: VEBS (BHUBANESWAR , IN) observed 0930 UTC 18 April 2019
Temperature: 37.0°C (99°F)
Dewpoint: 22.0°C (72°F) [RH = 42%]
Pressure (altimeter): 29.76 inches Hg (1008.0 mb)
Winds: from the SE (140 degrees) at 7 MPH (6 knots; 3.1 m/s)
Visibility: 3 miles ( 5 km)
Ceiling: at least 12,000 feet AGL
Clouds: few clouds at 2000 feet AGL
Weather: HZ  (haze)

METAR text: VEBS 180900Z 14006KT 5000 HZ FEW020 37/22 Q1008 NOSIG
Conditions at: VEBS (BHUBANESWAR , IN) observed 0900 UTC 18 April 2019
Temperature: 37.0°C (99°F)
Dewpoint: 22.0°C (72°F) [RH = 42%]
Pressure (altimeter): 29.76 inches Hg (1008.0 mb)
Winds: from the SE (140 degrees) at 7 MPH (6 knots; 3.1 m/s)
Visibility: 3 miles ( 5 km)
Ceiling: at least 12,000 feet AGL
Clouds: few clouds at 2000 feet AGL
Weather: HZ  (haze)

METAR text: VEBS 180830Z 14008KT 5000 HZ FEW020 37/23 Q1008 NOSIG
Conditions at: VEBS (BHUBANESWAR , IN) observed 0830 UTC 18 April 2019
Temperature: 37.0°C (99°F)
Dewpoint: 23.0°C (73°F) [RH = 45%]
Pressure (altimeter): 29.76 inches Hg (1008.0 mb)
Winds: from the SE (140 degrees) at 9 MPH (8 knots; 4.1 m/s)
Visibility: 3 miles ( 5 km)
Ceiling: at least 12,000 feet AGL
Clouds: few clouds at 2000 feet AGL
Weather: HZ  (haze)

METAR text: VEBS 180800Z 14008KT 5000 HZ FEW020 37/23 Q1009 NOSIG
Conditions at: VEBS (BHUBANESWAR , IN) observed 0800 UTC 18 April 2019
Temperature: 37.0°C (99°F)
Dewpoint: 23.0°C (73°F) [RH = 45%]
Pressure (altimeter): 29.79 inches Hg (1009.0 mb)
Winds: from the SE (140 degrees) at 9 MPH (8 knots; 4.1 m/s)
Visibility: 3 miles ( 5 km)
Ceiling: at least 12,000 feet AGL
Clouds: few clouds at 2000 feet AGL
Weather: HZ  (haze)

METAR text: VEBS 180730Z 16006KT 4500 HZ FEW020 36/24 Q1010 BECMG 5000 HZ
Conditions at: VEBS (BHUBANESWAR , IN) observed 0730 UTC 18 April 2019
Temperature: 36.0°C (97°F)
Dewpoint: 24.0°C (75°F) [RH = 50%]
Pressure (altimeter): 29.82 inches Hg (1010.0 mb)
Winds: from the SSE (160 degrees) at 7 MPH (6 knots; 3.1 m/s)
Visibility: 2.80 miles (4.51 km)
Ceiling: at least 12,000 feet AGL
Clouds: few clouds at 2000 feet AGL
Weather: HZ  (haze)

METAR text: VEBS 180700Z 22004KT 4000 HZ FEW020 36/25 Q1010 NOSIG
Conditions at: VEBS (BHUBANESWAR , IN) observed 0700 UTC 18 April 2019
Temperature: 36.0°C (97°F)
Dewpoint: 25.0°C (77°F) [RH = 53%]
Pressure (altimeter): 29.82 inches Hg (1010.0 mb)
Winds: from the SW (220 degrees) at 5 MPH (4 knots; 2.1 m/s)
Visibility: 2.49 miles (4.01 km)
Ceiling: at least 12,000 feet AGL
Clouds: few clouds at 2000 feet AGL
Weather: HZ  (haze)

METAR text: VEBS 180630Z 13005KT 4000 HZ FEW020 35/25 Q1011 NOSIG
Conditions at: VEBS (BHUBANESWAR , IN) observed 0630 UTC 18 April 2019
Temperature: 35.0°C (95°F)
Dewpoint: 25.0°C (77°F) [RH = 56%]
Pressure (altimeter): 29.85 inches Hg (1011.0 mb)
Winds: from the SE (130 degrees) at 6 MPH (5 knots; 2.6 m/s)
Visibility: 2.49 miles (4.01 km)
Ceiling: at least 12,000 feet AGL
Clouds: few clouds at 2000 feet AGL
Weather: HZ  (haze)

METAR text: VEBS 180600Z 15005KT 4000 HZ FEW020 34/24 Q1011 NOSIG
Conditions at: VEBS (BHUBANESWAR , IN) observed 0600 UTC 18 April 2019
Temperature: 34.0°C (93°F)
Dewpoint: 24.0°C (75°F) [RH = 56%]
Pressure (altimeter): 29.85 inches Hg (1011.0 mb)
Winds: from the SSE (150 degrees) at 6 MPH (5 knots; 2.6 m/s)
Visibility: 2.49 miles (4.01 km)
Ceiling: at least 12,000 feet AGL
Clouds: few clouds at 2000 feet AGL
Weather: HZ  (haze)

METAR text: VEBS 180530Z 11004KT 4000 HZ FEW020 33/26 Q1012 NOSIG
Conditions at: VEBS (BHUBANESWAR , IN) observed 0530 UTC 18 April 2019
Temperature: 33.0°C (91°F)
Dewpoint: 26.0°C (79°F) [RH = 67%]
Pressure (altimeter): 29.88 inches Hg (1012.0 mb)
Winds: from the ESE (110 degrees) at 5 MPH (4 knots; 2.1 m/s)
Visibility: 2.49 miles (4.01 km)
Ceiling: at least 12,000 feet AGL
Clouds: few clouds at 2000 feet AGL
Weather: HZ  (haze)

METAR text: VEBS 180500Z 16005KT 4000 HZ FEW020 32/27 Q1012 NOSIG
Conditions at: VEBS (BHUBANESWAR , IN) observed 0500 UTC 18 April 2019
Temperature: 32.0°C (90°F)
Dewpoint: 27.0°C (81°F) [RH = 75%]
Pressure (altimeter): 29.88 inches Hg (1012.0 mb)
Winds: from the SSE (160 degrees) at 6 MPH (5 knots; 2.6 m/s)
Visibility: 2.49 miles (4.01 km)
Ceiling: at least 12,000 feet AGL
Clouds: few clouds at 2000 feet AGL
Weather: HZ  (haze)

METAR text: VEBS 180430Z 12004KT 3000 HZ FEW020 31/27 Q1012 NOSIG
Conditions at: VEBS (BHUBANESWAR , IN) observed 0430 UTC 18 April 2019
Temperature: 31.0°C (88°F)
Dewpoint: 27.0°C (81°F) [RH = 79%]
Pressure (altimeter): 29.88 inches Hg (1012.0 mb)
Winds: from the ESE (120 degrees) at 5 MPH (4 knots; 2.1 m/s)
Visibility: 1.86 miles (2.99 km)
Ceiling: at least 12,000 feet AGL
Clouds: few clouds at 2000 feet AGL
Weather: HZ  (haze)

METAR text: VEBS 180400Z 12002KT 3000 BR NSC 31/27 Q1012 BECMG 5000 HZ
Conditions at: VEBS (BHUBANESWAR , IN) observed 0400 UTC 18 April 2019
Temperature: 31.0°C (88°F)
Dewpoint: 27.0°C (81°F) [RH = 79%]
Pressure (altimeter): 29.88 inches Hg (1012.0 mb)
Winds: from the ESE (120 degrees) at 2 MPH (2 knots; 1.0 m/s)
Visibility: 1.86 miles (2.99 km)
Ceiling: at least 12,000 feet AGL
Clouds: sky clear below 12,000 feet AGL
Weather: BR  (mist)

METAR text: VEBS 180330Z 00000KT 3000 BR NSC 30/27 Q1012 NOSIG
Conditions at: VEBS (BHUBANESWAR , IN) observed 0330 UTC 18 April 2019
Temperature: 30.0°C (86°F)
Dewpoint: 27.0°C (81°F) [RH = 84%]
Pressure (altimeter): 29.88 inches Hg (1012.0 mb)
Winds: calm
Visibility: 1.86 miles (2.99 km)
Ceiling: at least 12,000 feet AGL
Clouds: sky clear below 12,000 feet AGL
Weather: BR  (mist)

METAR text: VEBS 180300Z 00000KT 3000 BR NSC 29/27 Q1012 NOSIG
Conditions at: VEBS (BHUBANESWAR , IN) observed 0300 UTC 18 April 2019
Temperature: 29.0°C (84°F)
Dewpoint: 27.0°C (81°F) [RH = 89%]
Pressure (altimeter): 29.88 inches Hg (1012.0 mb)
Winds: calm
Visibility: 1.86 miles (2.99 km)
Ceiling: at least 12,000 feet AGL
Clouds: sky clear below 12,000 feet AGL
Weather: BR  (mist)

METAR text: VEBS 180230Z 00000KT 3000 BR NSC 28/27 Q1011 NOSIG
Conditions at: VEBS (BHUBANESWAR , IN) observed 0230 UTC 18 April 2019
Temperature: 28.0°C (82°F)
Dewpoint: 27.0°C (81°F) [RH = 94%]
Pressure (altimeter): 29.85 inches Hg (1011.0 mb)
Winds: calm
Visibility: 1.86 miles (2.99 km)
Ceiling: at least 12,000 feet AGL
Clouds: sky clear below 12,000 feet AGL
Weather: BR  (mist)

METAR text: VEBS 180200Z 00000KT 3000 BR NSC 27/26 Q1011 NOSIG
Conditions at: VEBS (BHUBANESWAR , IN) observed 0200 UTC 18 April 2019
Temperature: 27.0°C (81°F)
Dewpoint: 26.0°C (79°F) [RH = 94%]
Pressure (altimeter): 29.85 inches Hg (1011.0 mb)
Winds: calm
Visibility: 1.86 miles (2.99 km)
Ceiling: at least 12,000 feet AGL
Clouds: sky clear below 12,000 feet AGL
Weather: BR  (mist)

METAR text: VEBS 180130Z 00000KT 3000 BR NSC 26/25 Q1011 NOSIG
Conditions at: VEBS (BHUBANESWAR , IN) observed 0130 UTC 18 April 2019
Temperature: 26.0°C (79°F)
Dewpoint: 25.0°C (77°F) [RH = 94%]
Pressure (altimeter): 29.85 inches Hg (1011.0 mb)
Winds: calm
Visibility: 1.86 miles (2.99 km)
Ceiling: at least 12,000 feet AGL
Clouds: sky clear below 12,000 feet AGL
Weather: BR  (mist)

METAR text: VEBS 180100Z 00000KT 3000 BR NSC 25/25 Q1010 NOSIG
Conditions at: VEBS (BHUBANESWAR , IN) observed 0100 UTC 18 April 2019
Temperature: 25.0°C (77°F)
Dewpoint: 25.0°C (77°F) [RH = 100%]
Pressure (altimeter): 29.82 inches Hg (1010.0 mb)
Winds: calm
Visibility: 1.86 miles (2.99 km)
Ceiling: at least 12,000 feet AGL
Clouds: sky clear below 12,000 feet AGL
Weather: BR  (mist)

METAR text: VEBS 180030Z 00000KT 3000 BR NSC 25/25 Q1010 NOSIG
Conditions at: VEBS (BHUBANESWAR , IN) observed 0030 UTC 18 April 2019
Temperature: 25.0°C (77°F)
Dewpoint: 25.0°C (77°F) [RH = 100%]
Pressure (altimeter): 29.82 inches Hg (1010.0 mb)
Winds: calm
Visibility: 1.86 miles (2.99 km)
Ceiling: at least 12,000 feet AGL
Clouds: sky clear below 12,000 feet AGL
Weather: BR  (mist)

METAR text: VEBS 180000Z 09002KT 4000 BR NSC 26/25 Q1009 BECMG 3000 BR
Conditions at: VEBS (BHUBANESWAR , IN) observed 0000 UTC 18 April 2019
Temperature: 26.0°C (79°F)
Dewpoint: 25.0°C (77°F) [RH = 94%]
Pressure (altimeter): 29.79 inches Hg (1009.0 mb)
Winds: from the E (90 degrees) at 2 MPH (2 knots; 1.0 m/s)
Visibility: 2.49 miles (4.01 km)
Ceiling: at least 12,000 feet AGL
Clouds: sky clear below 12,000 feet AGL
Weather: BR  (mist)

METAR text: VEBS 172330Z 08001KT 4000 HZ NSC 26/25 Q1009 NOSIG
Conditions at: VEBS (BHUBANESWAR , IN) observed 2330 UTC 17 April 2019
Temperature: 26.0°C (79°F)
Dewpoint: 25.0°C (77°F) [RH = 94%]
Pressure (altimeter): 29.79 inches Hg (1009.0 mb)
Winds: from the E (80 degrees) at 1 MPH (1 knots; 0.5 m/s)
Visibility: 2.49 miles (4.01 km)
Ceiling: at least 12,000 feet AGL
Clouds: sky clear below 12,000 feet AGL
Weather: HZ  (haze)

METAR text: VEBS 172300Z 07002KT 4000 HZ NSC 26/25 Q1009 NOSIG
Conditions at: VEBS (BHUBANESWAR , IN) observed 2300 UTC 17 April 2019
Temperature: 26.0°C (79°F)
Dewpoint: 25.0°C (77°F) [RH = 94%]
Pressure (altimeter): 29.79 inches Hg (1009.0 mb)
Winds: from the ENE (70 degrees) at 2 MPH (2 knots; 1.0 m/s)
Visibility: 2.49 miles (4.01 km)
Ceiling: at least 12,000 feet AGL
Clouds: sky clear below 12,000 feet AGL
Weather: HZ  (haze)

METAR text: VEBS 172230Z 09001KT 4000 HZ NSC 26/25 Q1009 NOSIG
Conditions at: VEBS (BHUBANESWAR , IN) observed 2230 UTC 17 April 2019
Temperature: 26.0°C (79°F)
Dewpoint: 25.0°C (77°F) [RH = 94%]
Pressure (altimeter): 29.79 inches Hg (1009.0 mb)
Winds: from the E (90 degrees) at 1 MPH (1 knots; 0.5 m/s)
Visibility: 2.49 miles (4.01 km)
Ceiling: at least 12,000 feet AGL
Clouds: sky clear below 12,000 feet AGL
Weather: HZ  (haze)

METAR text: VEBS 172200Z 09002KT 4000 HZ NSC 26/25 Q1009 NOSIG
Conditions at: VEBS (BHUBANESWAR , IN) observed 2200 UTC 17 April 2019
Temperature: 26.0°C (79°F)
Dewpoint: 25.0°C (77°F) [RH = 94%]
Pressure (altimeter): 29.79 inches Hg (1009.0 mb)
Winds: from the E (90 degrees) at 2 MPH (2 knots; 1.0 m/s)
Visibility: 2.49 miles (4.01 km)
Ceiling: at least 12,000 feet AGL
Clouds: sky clear below 12,000 feet AGL
Weather: HZ  (haze)

METAR text: VEBS 172130Z 08004KT 5000 HZ NSC 26/25 Q1009 BECMG 3000 HZ
Conditions at: VEBS (BHUBANESWAR , IN) observed 2130 UTC 17 April 2019
Temperature: 26.0°C (79°F)
Dewpoint: 25.0°C (77°F) [RH = 94%]
Pressure (altimeter): 29.79 inches Hg (1009.0 mb)
Winds: from the E (80 degrees) at 5 MPH (4 knots; 2.1 m/s)
Visibility: 3 miles ( 5 km)
Ceiling: at least 12,000 feet AGL
Clouds: sky clear below 12,000 feet AGL
Weather: HZ  (haze)

METAR text: VEBS 172100Z 07004KT 5000 HZ FEW020 26/25 Q1009 NOSIG
Conditions at: VEBS (BHUBANESWAR , IN) observed 2100 UTC 17 April 2019
Temperature: 26.0°C (79°F)
Dewpoint: 25.0°C (77°F) [RH = 94%]
Pressure (altimeter): 29.79 inches Hg (1009.0 mb)
Winds: from the ENE (70 degrees) at 5 MPH (4 knots; 2.1 m/s)
Visibility: 3 miles ( 5 km)
Ceiling: at least 12,000 feet AGL
Clouds: few clouds at 2000 feet AGL
Weather: HZ  (haze)

METAR text: VEBS 172030Z 05003KT 5000 HZ FEW020 26/24 Q1010 NOSIG
Conditions at: VEBS (BHUBANESWAR , IN) observed 2030 UTC 17 April 2019
Temperature: 26.0°C (79°F)
Dewpoint: 24.0°C (75°F) [RH = 89%]
Pressure (altimeter): 29.82 inches Hg (1010.0 mb)
Winds: from the NE (50 degrees) at 3 MPH (3 knots; 1.5 m/s)
Visibility: 3 miles ( 5 km)
Ceiling: at least 12,000 feet AGL
Clouds: few clouds at 2000 feet AGL
Weather: HZ  (haze)

METAR text: VEBS 172000Z 06002KT 5000 HZ FEW020 26/24 Q1010 NOSIG
Conditions at: VEBS (BHUBANESWAR , IN) observed 2000 UTC 17 April 2019
Temperature: 26.0°C (79°F)
Dewpoint: 24.0°C (75°F) [RH = 89%]
Pressure (altimeter): 29.82 inches Hg (1010.0 mb)
Winds: from the ENE (60 degrees) at 2 MPH (2 knots; 1.0 m/s)
Visibility: 3 miles ( 5 km)
Ceiling: at least 12,000 feet AGL
Clouds: few clouds at 2000 feet AGL
Weather: HZ  (haze)

METAR text: VEBS 171930Z 03003KT 5000 HZ FEW020 26/24 Q1011 NOSIG
Conditions at: VEBS (BHUBANESWAR , IN) observed 1930 UTC 17 April 2019
Temperature: 26.0°C (79°F)
Dewpoint: 24.0°C (75°F) [RH = 89%]
Pressure (altimeter): 29.85 inches Hg (1011.0 mb)
Winds: from the NNE (30 degrees) at 3 MPH (3 knots; 1.5 m/s)
Visibility: 3 miles ( 5 km)
Ceiling: at least 12,000 feet AGL
Clouds: few clouds at 2000 feet AGL
Weather: HZ  (haze)

METAR text: VEBS 171900Z 03004KT 5000 HZ FEW020 27/26 Q1011 NOSIG
Conditions at: VEBS (BHUBANESWAR , IN) observed 1900 UTC 17 April 2019
Temperature: 27.0°C (81°F)
Dewpoint: 26.0°C (79°F) [RH = 94%]
Pressure (altimeter): 29.85 inches Hg (1011.0 mb)
Winds: from the NNE (30 degrees) at 5 MPH (4 knots; 2.1 m/s)
Visibility: 3 miles ( 5 km)
Ceiling: at least 12,000 feet AGL
Clouds: few clouds at 2000 feet AGL
Weather: HZ  (haze)

METAR text: VEBS 171830Z 09003KT 5000 HZ FEW020 28/27 Q1011 NOSIG
Conditions at: VEBS (BHUBANESWAR , IN) observed 1830 UTC 17 April 2019
Temperature: 28.0°C (82°F)
Dewpoint: 27.0°C (81°F) [RH = 94%]
Pressure (altimeter): 29.85 inches Hg (1011.0 mb)
Winds: from the E (90 degrees) at 3 MPH (3 knots; 1.5 m/s)
Visibility: 3 miles ( 5 km)
Ceiling: at least 12,000 feet AGL
Clouds: few clouds at 2000 feet AGL
Weather: HZ  (haze)

METAR text: VEBS 171800Z 10002KT 5000 HZ NSC 28/26 Q1011 NOSIG
Conditions at: VEBS (BHUBANESWAR , IN) observed 1800 UTC 17 April 2019
Temperature: 28.0°C (82°F)
Dewpoint: 26.0°C (79°F) [RH = 89%]
Pressure (altimeter): 29.85 inches Hg (1011.0 mb)
Winds: from the E (100 degrees) at 2 MPH (2 knots; 1.0 m/s)
Visibility: 3 miles ( 5 km)
Ceiling: at least 12,000 feet AGL
Clouds: sky clear below 12,000 feet AGL
Weather: HZ  (haze)

METAR text: VEBS 171730Z 11004KT 5000 HZ NSC 28/27 Q1011 NOSIG
Conditions at: VEBS (BHUBANESWAR , IN) observed 1730 UTC 17 April 2019
Temperature: 28.0°C (82°F)
Dewpoint: 27.0°C (81°F) [RH = 94%]
Pressure (altimeter): 29.85 inches Hg (1011.0 mb)
Winds: from the ESE (110 degrees) at 5 MPH (4 knots; 2.1 m/s)
Visibility: 3 miles ( 5 km)
Ceiling: at least 12,000 feet AGL
Clouds: sky clear below 12,000 feet AGL
Weather: HZ  (haze)

METAR text: VEBS 171700Z 08005KT 5000 HZ FEW020 29/27 Q1011 NOSIG
Conditions at: VEBS (BHUBANESWAR , IN) observed 1700 UTC 17 April 2019
Temperature: 29.0°C (84°F)
Dewpoint: 27.0°C (81°F) [RH = 89%]
Pressure (altimeter): 29.85 inches Hg (1011.0 mb)
Winds: from the E (80 degrees) at 6 MPH (5 knots; 2.6 m/s)
Visibility: 3 miles ( 5 km)
Ceiling: at least 12,000 feet AGL
Clouds: few clouds at 2000 feet AGL
Weather: HZ  (haze)

METAR text: VEBS 171630Z 07005KT 5000 HZ FEW020 29/27 Q1011 NOSIG
Conditions at: VEBS (BHUBANESWAR , IN) observed 1630 UTC 17 April 2019
Temperature: 29.0°C (84°F)
Dewpoint: 27.0°C (81°F) [RH = 89%]
Pressure (altimeter): 29.85 inches Hg (1011.0 mb)
Winds: from the ENE (70 degrees) at 6 MPH (5 knots; 2.6 m/s)
Visibility: 3 miles ( 5 km)
Ceiling: at least 12,000 feet AGL
Clouds: few clouds at 2000 feet AGL
Weather: HZ  (haze)

METAR text: VEBS 171600Z 09005KT 5000 HZ FEW020 30/27 Q1011 NOSIG
Conditions at: VEBS (BHUBANESWAR , IN) observed 1600 UTC 17 April 2019
Temperature: 30.0°C (86°F)
Dewpoint: 27.0°C (81°F) [RH = 84%]
Pressure (altimeter): 29.85 inches Hg (1011.0 mb)
Winds: from the E (90 degrees) at 6 MPH (5 knots; 2.6 m/s)
Visibility: 3 miles ( 5 km)
Ceiling: at least 12,000 feet AGL
Clouds: few clouds at 2000 feet AGL
Weather: HZ  (haze)

METAR text: VEBS 171530Z 08007KT 5000 HZ FEW020 30/27 Q1011 NOSIG
Conditions at: VEBS (BHUBANESWAR , IN) observed 1530 UTC 17 April 2019
Temperature: 30.0°C (86°F)
Dewpoint: 27.0°C (81°F) [RH = 84%]
Pressure (altimeter): 29.85 inches Hg (1011.0 mb)
Winds: from the E (80 degrees) at 8 MPH (7 knots; 3.6 m/s)
Visibility: 3 miles ( 5 km)
Ceiling: at least 12,000 feet AGL
Clouds: few clouds at 2000 feet AGL
Weather: HZ  (haze)

METAR text: VEBS 171500Z 05004KT 5000 HZ FEW020 FEW030CB 30/24 Q1010 NOSIG
Conditions at: VEBS (BHUBANESWAR , IN) observed 1500 UTC 17 April 2019
Temperature: 30.0°C (86°F)
Dewpoint: 24.0°C (75°F) [RH = 70%]
Pressure (altimeter): 29.82 inches Hg (1010.0 mb)
Winds: from the NE (50 degrees) at 5 MPH (4 knots; 2.1 m/s)
Visibility: 3 miles ( 5 km)
Ceiling: at least 12,000 feet AGL
Clouds: few clouds at 2000 feet AGL
few clouds at 3000 feet AGL
Weather: HZ  (haze)

METAR text: VEBS 171430Z 08003KT 5000 HZ FEW020 FEW030CB 30/24 Q1010 NOSIG
Conditions at: VEBS (BHUBANESWAR , IN) observed 1430 UTC 17 April 2019
Temperature: 30.0°C (86°F)
Dewpoint: 24.0°C (75°F) [RH = 70%]
Pressure (altimeter): 29.82 inches Hg (1010.0 mb)
Winds: from the E (80 degrees) at 3 MPH (3 knots; 1.5 m/s)
Visibility: 3 miles ( 5 km)
Ceiling: at least 12,000 feet AGL
Clouds: few clouds at 2000 feet AGL
few clouds at 3000 feet AGL
Weather: HZ  (haze)

METAR text: VEBS 171400Z 15005KT 5000 TS FEW020 FEW030CB 30/25 Q1009 NOSIG
Conditions at: VEBS (BHUBANESWAR , IN) observed 1400 UTC 17 April 2019
Temperature: 30.0°C (86°F)
Dewpoint: 25.0°C (77°F) [RH = 75%]
Pressure (altimeter): 29.79 inches Hg (1009.0 mb)
Winds: from the SSE (150 degrees) at 6 MPH (5 knots; 2.6 m/s)
Visibility: 3 miles ( 5 km)
Ceiling: at least 12,000 feet AGL
Clouds: few clouds at 2000 feet AGL
few clouds at 3000 feet AGL
Weather: TS  (thunderstorm)

METAR text: VEBS 171330Z 16008KT 5000 FEW020 FEW030CB 31/25 Q1008 NOSIG
Conditions at: VEBS (BHUBANESWAR , IN) observed 1330 UTC 17 April 2019
Temperature: 31.0°C (88°F)
Dewpoint: 25.0°C (77°F) [RH = 71%]
Pressure (altimeter): 29.76 inches Hg (1008.0 mb)
Winds: from the SSE (160 degrees) at 9 MPH (8 knots; 4.1 m/s)
Visibility: 3 miles ( 5 km)
Ceiling: at least 12,000 feet AGL
Clouds: few clouds at 2000 feet AGL
few clouds at 3000 feet AGL
Weather: no significant weather observed at this time

METAR text: VEBS 171300Z 16008KT 5000 FEW020 FEW030CB 33/25 Q1007 TEMPO TS
Conditions at: VEBS (BHUBANESWAR , IN) observed 1300 UTC 17 April 2019
Temperature: 33.0°C (91°F)
Dewpoint: 25.0°C (77°F) [RH = 63%]
Pressure (altimeter): 29.73 inches Hg (1007.0 mb)
Winds: from the SSE (160 degrees) at 9 MPH (8 knots; 4.1 m/s)
Visibility: 3 miles ( 5 km)
Ceiling: at least 12,000 feet AGL
Clouds: few clouds at 2000 feet AGL
few clouds at 3000 feet AGL
Weather: no significant weather observed at this time

METAR text: VEBS 171230Z 16008KT 6000 FEW020 34/24 Q1007 BECMG 5000 HZ
Conditions at: VEBS (BHUBANESWAR , IN) observed 1230 UTC 17 April 2019
Temperature: 34.0°C (93°F)
Dewpoint: 24.0°C (75°F) [RH = 56%]
Pressure (altimeter): 29.73 inches Hg (1007.0 mb)
Winds: from the SSE (160 degrees) at 9 MPH (8 knots; 4.1 m/s)
Visibility: 4 miles ( 6 km)
Ceiling: at least 12,000 feet AGL
Clouds: few clouds at 2000 feet AGL
Weather: no significant weather observed at this time

METAR text: VEBS 171200Z 18006KT 6000 FEW020 36/21 Q1007 BECMG 5000 HZ
Conditions at: VEBS (BHUBANESWAR , IN) observed 1200 UTC 17 April 2019
Temperature: 36.0°C (97°F)
Dewpoint: 21.0°C (70°F) [RH = 42%]
Pressure (altimeter): 29.73 inches Hg (1007.0 mb)
Winds: from the S (180 degrees) at 7 MPH (6 knots; 3.1 m/s)
Visibility: 4 miles ( 6 km)
Ceiling: at least 12,000 feet AGL
Clouds: few clouds at 2000 feet AGL
Weather: no significant weather observed at this time

METAR text: VEBS 171130Z 17009KT 6000 FEW020 37/21 Q1007 BECMG 5000 HZ
Conditions at: VEBS (BHUBANESWAR , IN) observed 1130 UTC 17 April 2019
Temperature: 37.0°C (99°F)
Dewpoint: 21.0°C (70°F) [RH = 40%]
Pressure (altimeter): 29.73 inches Hg (1007.0 mb)
Winds: from the S (170 degrees) at 10 MPH (9 knots; 4.6 m/s)
Visibility: 4 miles ( 6 km)
Ceiling: at least 12,000 feet AGL
Clouds: few clouds at 2000 feet AGL
Weather: no significant weather observed at this time

METAR text: VEBS 171100Z 16008KT 6000 FEW020 38/21 Q1007 NOSIG
Conditions at: VEBS (BHUBANESWAR , IN) observed 1100 UTC 17 April 2019
Temperature: 38.0°C (100°F)
Dewpoint: 21.0°C (70°F) [RH = 38%]
Pressure (altimeter): 29.73 inches Hg (1007.0 mb)
Winds: from the SSE (160 degrees) at 9 MPH (8 knots; 4.1 m/s)
Visibility: 4 miles ( 6 km)
Ceiling: at least 12,000 feet AGL
Clouds: few clouds at 2000 feet AGL
Weather: no significant weather observed at this time

METAR text: VEBS 171030Z 18005KT 6000 FEW020 39/20 Q1007 NOSIG
Conditions at: VEBS (BHUBANESWAR , IN) observed 1030 UTC 17 April 2019
Temperature: 39.0°C (102°F)
Dewpoint: 20.0°C (68°F) [RH = 33%]
Pressure (altimeter): 29.73 inches Hg (1007.0 mb)
Winds: from the S (180 degrees) at 6 MPH (5 knots; 2.6 m/s)
Visibility: 4 miles ( 6 km)
Ceiling: at least 12,000 feet AGL
Clouds: few clouds at 2000 feet AGL
Weather: no significant weather observed at this time

METAR text: VEBS 171000Z 15009KT 6000 FEW020 40/20 Q1007 NOSIG
Conditions at: VEBS (BHUBANESWAR , IN) observed 1000 UTC 17 April 2019
Temperature: 40.0°C (104°F)
Dewpoint: 20.0°C (68°F) [RH = 32%]
Pressure (altimeter): 29.73 inches Hg (1007.0 mb)
Winds: from the SSE (150 degrees) at 10 MPH (9 knots; 4.6 m/s)
Visibility: 4 miles ( 6 km)
Ceiling: at least 12,000 feet AGL
Clouds: few clouds at 2000 feet AGL
Weather: no significant weather observed at this time

METAR text: VEBS 170930Z 18006KT 6000 FEW020 40/20 Q1007 NOSIG
Conditions at: VEBS (BHUBANESWAR , IN) observed 0930 UTC 17 April 2019
Temperature: 40.0°C (104°F)
Dewpoint: 20.0°C (68°F) [RH = 32%]
Pressure (altimeter): 29.73 inches Hg (1007.0 mb)
Winds: from the S (180 degrees) at 7 MPH (6 knots; 3.1 m/s)
Visibility: 4 miles ( 6 km)
Ceiling: at least 12,000 feet AGL
Clouds: few clouds at 2000 feet AGL
Weather: no significant weather observed at this time

METAR text: VEBS 170900Z 18006KT 6000 FEW020 40/20 Q1007 NOSIG
Conditions at: VEBS (BHUBANESWAR , IN) observed 0900 UTC 17 April 2019
Temperature: 40.0°C (104°F)
Dewpoint: 20.0°C (68°F) [RH = 32%]
Pressure (altimeter): 29.73 inches Hg (1007.0 mb)
Winds: from the S (180 degrees) at 7 MPH (6 knots; 3.1 m/s)
Visibility: 4 miles ( 6 km)
Ceiling: at least 12,000 feet AGL
Clouds: few clouds at 2000 feet AGL
Weather: no significant weather observed at this time

METAR text: VEBS 170830Z 16008KT 6000 FEW020 40/17 Q1008 NOSIG
Conditions at: VEBS (BHUBANESWAR , IN) observed 0830 UTC 17 April 2019
Temperature: 40.0°C (104°F)
Dewpoint: 17.0°C (63°F) [RH = 26%]
Pressure (altimeter): 29.76 inches Hg (1008.0 mb)
Winds: from the SSE (160 degrees) at 9 MPH (8 knots; 4.1 m/s)
Visibility: 4 miles ( 6 km)
Ceiling: at least 12,000 feet AGL
Clouds: few clouds at 2000 feet AGL
Weather: no significant weather observed at this time

METAR text: VEBS 170800Z 15004KT 6000 FEW020 40/21 Q1009 NOSIG
Conditions at: VEBS (BHUBANESWAR , IN) observed 0800 UTC 17 April 2019
Temperature: 40.0°C (104°F)
Dewpoint: 21.0°C (70°F) [RH = 34%]
Pressure (altimeter): 29.79 inches Hg (1009.0 mb)
Winds: from the SSE (150 degrees) at 5 MPH (4 knots; 2.1 m/s)
Visibility: 4 miles ( 6 km)
Ceiling: at least 12,000 feet AGL
Clouds: few clouds at 2000 feet AGL
Weather: no significant weather observed at this time

METAR text: VEBS 170730Z 09002KT 5000 HZ FEW100 39/23 Q1009 NOSIG
Conditions at: VEBS (BHUBANESWAR , IN) observed 0730 UTC 17 April 2019
Temperature: 39.0°C (102°F)
Dewpoint: 23.0°C (73°F) [RH = 40%]
Pressure (altimeter): 29.79 inches Hg (1009.0 mb)
Winds: from the E (90 degrees) at 2 MPH (2 knots; 1.0 m/s)
Visibility: 3 miles ( 5 km)
Ceiling: at least 12,000 feet AGL
Clouds: few clouds at 10000 feet AGL
Weather: HZ  (haze)

METAR text: VEBS 170700Z 14003KT 5000 HZ FEW100 38/23 Q1010 NOSIG
Conditions at: VEBS (BHUBANESWAR , IN) observed 0700 UTC 17 April 2019
Temperature: 38.0°C (100°F)
Dewpoint: 23.0°C (73°F) [RH = 42%]
Pressure (altimeter): 29.82 inches Hg (1010.0 mb)
Winds: from the SE (140 degrees) at 3 MPH (3 knots; 1.5 m/s)
Visibility: 3 miles ( 5 km)
Ceiling: at least 12,000 feet AGL
Clouds: few clouds at 10000 feet AGL
Weather: HZ  (haze)

METAR text: VEBS 170630Z 10005KT 5000 HZ NSC 37/24 Q1010 NOSIG
Conditions at: VEBS (BHUBANESWAR , IN) observed 0630 UTC 17 April 2019
Temperature: 37.0°C (99°F)
Dewpoint: 24.0°C (75°F) [RH = 48%]
Pressure (altimeter): 29.82 inches Hg (1010.0 mb)
Winds: from the E (100 degrees) at 6 MPH (5 knots; 2.6 m/s)
Visibility: 3 miles ( 5 km)
Ceiling: at least 12,000 feet AGL
Clouds: sky clear below 12,000 feet AGL
Weather: HZ  (haze)

Forecast for: VEBS (BHUBANESWAR , IN)
Text: TAF VEBS 181700Z 1818/1903 20003KT 5000 HZ FEW020 SCT100
Forecast period: 1800 UTC 18 April 2019 to 0300 UTC 19 April 2019
Forecast type: FROM: standard forecast or significant change
Winds: from the SSW (200 degrees) at 3 MPH (3 knots; 1.5 m/s)
Visibility: 3 miles (5 km)
Ceiling: at least 12,000 feet AGL
Clouds: few clouds at 2000 feet AGL
scattered clouds at 10000 feet AGL
Weather: HZ  (haze)
Text: TEMPO 1822/1902 2000 -TSRA BKN018 FEW030CB BKN090
Forecast period: 2200 UTC 18 April 2019 to 0200 UTC 19 April 2019
Forecast type: TEMPORARY: The following changes expected for less than half the time period
Visibility: 1.24 miles (2.00 km)
Ceiling: 1800 feet AGL
Clouds: broken clouds at 1800 feet AGL
few clouds at 3000 feet AGL
broken clouds at 9000 feet AGL
Weather: -TSRA  (light rain associated with thunderstorm(s))